createdAt,value
2023-04-12T00:02:27.860Z,42.90
2023-04-12T00:07:30.425Z,42.52
2023-04-12T00:12:33.272Z,43.05
2023-04-12T00:17:36.947Z,43.54
2023-04-12T00:22:41.694Z,43.16
2023-04-12T00:27:44.006Z,43.44
2023-04-12T00:32:46.506Z,43.27
2023-04-12T00:37:49.077Z,43.70
2023-04-12T00:42:51.628Z,43.00
2023-04-12T00:47:56.540Z,43.10
2023-04-12T00:52:59.065Z,42.97
2023-04-12T00:58:02.243Z,42.75
2023-04-12T01:03:05.689Z,42.70
2023-04-12T01:08:08.462Z,42.47
2023-04-12T01:13:14.032Z,42.48
2023-04-12T01:18:25.618Z,42.62
2023-04-12T01:23:53.102Z,41.89
2023-04-12T01:28:56.804Z,42.35
2023-04-12T01:34:00.140Z,42.06
2023-04-12T01:39:05.080Z,41.74
2023-04-12T01:44:07.909Z,42.63
2023-04-12T01:49:13.161Z,41.87
2023-04-12T01:54:23.540Z,42.26
2023-04-12T01:59:32.806Z,41.57
2023-04-12T02:04:37.015Z,41.90
2023-04-12T02:09:39.832Z,41.24
2023-04-12T02:14:42.444Z,41.28
2023-04-12T02:19:48.169Z,40.63
2023-04-12T02:24:52.291Z,40.23
2023-04-12T02:29:55.040Z,40.19
2023-04-12T02:34:59.833Z,40.03
2023-04-12T02:40:03.068Z,39.58
2023-04-12T02:45:07.741Z,39.51
2023-04-12T02:50:10.404Z,39.35
2023-04-12T02:55:23.947Z,39.29
2023-04-12T03:00:28.307Z,38.77
2023-04-12T03:05:35.144Z,38.57
2023-04-12T03:10:38.396Z,38.87
2023-04-12T03:15:43.889Z,38.25
2023-04-12T03:20:48.667Z,38.04
2023-04-12T03:25:52.712Z,37.79
2023-04-12T03:31:11.425Z,37.77
2023-04-12T03:36:17.148Z,37.71
2023-04-12T03:41:25.077Z,37.57
2023-04-12T03:46:28.363Z,37.88
2023-04-12T03:51:34.398Z,37.74
2023-04-12T03:56:40.003Z,37.86
2023-04-12T04:01:50.295Z,37.70
2023-04-12T04:06:55.707Z,37.80
2023-04-12T04:12:01.488Z,37.86
2023-04-12T04:17:08.380Z,37.57
2023-04-12T04:22:12.633Z,37.63
2023-04-12T04:27:15.984Z,37.67
2023-04-12T04:32:19.587Z,38.04
2023-04-12T04:37:22.557Z,38.72
2023-04-12T04:42:25.759Z,38.92
2023-04-12T04:47:34.734Z,38.94
2023-04-12T04:52:39.525Z,39.12
2023-04-12T04:57:47.051Z,38.65
2023-04-12T05:02:51.930Z,38.85
2023-04-12T05:07:59.870Z,38.25
2023-04-12T05:13:05.765Z,38.33
2023-04-12T05:18:08.975Z,38.49
2023-04-12T05:23:11.473Z,38.94
2023-04-12T05:28:18.193Z,39.10
2023-04-12T05:33:21.849Z,39.18
2023-04-12T05:38:25.754Z,40.31
2023-04-12T05:43:33.483Z,39.85
2023-04-12T05:48:37.688Z,39.71
2023-04-12T05:53:41.462Z,39.11
2023-04-12T05:58:49.841Z,38.82
2023-04-12T06:03:54.734Z,37.20
2023-04-12T06:09:00.889Z,36.97
2023-04-12T06:14:04.183Z,36.26
2023-04-12T06:19:07.455Z,34.89
2023-04-12T06:24:09.936Z,33.33
2023-04-12T06:29:14.223Z,32.48
2023-04-12T06:34:20.314Z,31.84
2023-04-12T06:39:23.846Z,32.52
2023-04-12T06:44:28.667Z,32.52
2023-04-12T06:49:42.288Z,32.01
2023-04-12T06:54:45.677Z,32.02
2023-04-12T06:59:49.344Z,32.41
2023-04-12T07:04:54.658Z,31.93
2023-04-12T07:09:58.659Z,32.25
2023-04-12T07:15:01.986Z,32.55
2023-04-12T07:20:05.486Z,32.91
2023-04-12T07:25:11.062Z,33.88
2023-04-12T07:30:14.261Z,33.94
2023-04-12T07:35:17.372Z,34.40
2023-04-12T07:40:20.878Z,34.96
2023-04-12T07:45:24.455Z,35.64
2023-04-12T07:50:27.817Z,35.49
2023-04-12T07:55:30.634Z,35.70
2023-04-12T08:00:35.151Z,35.40
2023-04-12T08:05:38.865Z,35.54
2023-04-12T08:10:41.480Z,34.83
2023-04-12T08:15:45.416Z,34.66
2023-04-12T08:20:50.219Z,34.46
2023-04-12T08:26:03.412Z,34.81
2023-04-12T08:31:08.665Z,35.80
2023-04-12T08:36:11.310Z,45.34
2023-04-12T08:41:15.054Z,48.32
2023-04-12T08:46:18.816Z,54.45
2023-04-12T08:51:23.422Z,58.17
2023-04-12T08:56:31.014Z,55.13
2023-04-12T09:01:49.844Z,57.28
2023-04-12T09:07:01.203Z,53.91
2023-04-12T09:12:25.168Z,52.30
2023-04-12T09:17:35.503Z,49.53
2023-04-12T09:22:46.518Z,48.95
2023-04-12T09:27:58.005Z,54.28
2023-04-12T09:33:17.443Z,54.23
2023-04-12T09:38:33.134Z,53.36
2023-04-12T09:43:53.645Z,57.34
2023-04-12T09:49:02.112Z,58.68
2023-04-12T09:54:12.142Z,56.79
2023-04-12T09:59:31.973Z,57.34
2023-04-12T10:04:41.649Z,56.91
2023-04-12T10:09:46.050Z,56.11
2023-04-12T10:14:51.192Z,54.84
2023-04-12T10:19:55.832Z,55.09
2023-04-12T10:25:02.144Z,53.65
2023-04-12T10:30:31.029Z,53.18
2023-04-12T10:36:26.212Z,49.37
2023-04-12T10:42:15.715Z,52.93
2023-04-12T10:47:52.574Z,48.78
2023-04-12T10:53:36.309Z,46.04
2023-04-12T10:59:00.557Z,47.37
2023-04-12T11:04:24.331Z,45.16
2023-04-12T11:09:50.182Z,44.43
2023-04-12T11:15:51.259Z,43.39
2023-04-12T11:21:07.909Z,42.92
2023-04-12T11:26:12.137Z,41.04
2023-04-12T11:31:16.118Z,42.79
2023-04-12T11:36:19.371Z,41.81
2023-04-12T11:41:22.074Z,40.40
2023-04-12T11:46:26.093Z,39.54
2023-04-12T11:51:32.474Z,38.25
2023-04-12T11:56:36.149Z,38.09
2023-04-12T12:01:39.095Z,37.95
2023-04-12T12:06:42.726Z,37.81
2023-04-12T12:11:46.589Z,37.39
2023-04-12T12:16:59.380Z,37.98
2023-04-12T12:22:18.810Z,37.22
2023-04-12T12:27:24.529Z,37.53
2023-04-12T12:32:35.152Z,37.19
2023-04-12T12:37:37.648Z,36.05
2023-04-12T12:42:50.662Z,34.42
2023-04-12T12:47:56.874Z,33.36
2023-04-12T12:53:01.169Z,33.50
2023-04-12T12:58:08.043Z,33.73
2023-04-12T13:03:14.455Z,33.06
2023-04-12T13:08:18.138Z,33.37
2023-04-12T13:13:20.666Z,33.67
2023-04-12T13:18:23.028Z,33.61
2023-04-12T13:23:26.605Z,33.17
2023-04-12T13:28:30.960Z,33.59
2023-04-12T13:33:33.933Z,33.44
2023-04-12T13:38:36.818Z,33.86
2023-04-12T13:43:42.288Z,33.71
2023-04-12T13:48:45.266Z,33.66
2023-04-12T13:53:50.450Z,33.50
2023-04-12T13:58:53.672Z,34.03
2023-04-12T14:03:57.493Z,33.41
2023-04-12T14:09:00.331Z,33.36
2023-04-12T14:14:03.278Z,33.53
2023-04-12T14:19:06.895Z,33.76
2023-04-12T14:24:09.616Z,34.27
2023-04-12T14:29:12.622Z,34.63
2023-04-12T14:34:15.432Z,35.31
2023-04-12T14:39:19.539Z,35.32
2023-04-12T14:44:24.611Z,35.23
2023-04-12T14:49:32.829Z,35.63
2023-04-12T14:54:35.805Z,36.19
2023-04-12T14:59:39.372Z,36.56
2023-04-12T15:04:43.281Z,36.95
2023-04-12T15:09:46.306Z,37.49
2023-04-12T15:14:53.680Z,38.94
2023-04-12T15:19:58.166Z,39.94
2023-04-12T15:25:02.941Z,40.07
2023-04-12T15:30:10.519Z,40.67
2023-04-12T15:35:25.972Z,40.85
2023-04-12T15:40:29.975Z,41.05
2023-04-12T15:45:32.581Z,41.46
2023-04-12T15:50:35.605Z,42.00
2023-04-12T15:55:39.428Z,42.11
2023-04-12T16:00:42.707Z,42.52
2023-04-12T16:05:47.394Z,42.95
2023-04-12T16:10:51.116Z,42.97
2023-04-12T16:15:54.441Z,43.82
2023-04-12T16:20:57.173Z,44.03
2023-04-12T16:26:04.039Z,44.25
2023-04-12T16:31:07.147Z,44.88
2023-04-12T16:36:09.792Z,45.27
2023-04-12T16:41:12.341Z,45.70
2023-04-12T16:46:15.600Z,45.51
2023-04-12T16:51:18.197Z,45.68
2023-04-12T16:56:21.158Z,46.24
2023-04-12T17:01:24.055Z,46.42
2023-04-12T17:06:28.229Z,46.55
2023-04-12T17:11:31.315Z,46.61
2023-04-12T17:16:33.752Z,46.92
2023-04-12T17:21:41.712Z,46.31
2023-04-12T17:26:45.073Z,46.68
2023-04-12T17:31:51.920Z,47.63
2023-04-12T17:36:56.890Z,47.16
2023-04-12T17:41:59.320Z,47.47
2023-04-12T17:47:02.265Z,47.52
2023-04-12T17:52:05.216Z,48.25
2023-04-12T17:57:07.852Z,48.33
2023-04-12T18:02:10.909Z,48.29
2023-04-12T18:07:14.861Z,48.77
2023-04-12T18:12:17.705Z,48.81
2023-04-12T18:17:20.317Z,48.78
2023-04-12T18:22:22.829Z,48.83
2023-04-12T18:27:25.364Z,48.51
2023-04-12T18:32:39.785Z,48.95
2023-04-12T18:37:43.847Z,48.40
2023-04-12T18:42:46.254Z,48.55
2023-04-12T18:47:48.915Z,47.96
2023-04-12T18:52:51.483Z,48.43
2023-04-12T18:57:53.849Z,48.73
2023-04-12T19:02:56.305Z,48.53
2023-04-12T19:08:00.492Z,48.23
2023-04-12T19:13:03.389Z,48.31
2023-04-12T19:18:06.007Z,48.00
2023-04-12T19:23:08.844Z,47.51
2023-04-12T19:28:12.305Z,47.42
2023-04-12T19:33:15.427Z,47.51
2023-04-12T19:38:20.556Z,47.42
2023-04-12T19:43:25.681Z,47.34
2023-04-12T19:48:29.316Z,47.54
2023-04-12T19:53:33.486Z,47.43
2023-04-12T19:58:35.944Z,47.71
2023-04-12T20:03:39.097Z,47.56
2023-04-12T20:08:41.436Z,47.17
2023-04-12T20:13:44.199Z,46.96
2023-04-12T20:18:47.803Z,47.16
2023-04-12T20:23:52.071Z,47.07
2023-04-12T20:28:56.992Z,47.26
2023-04-12T20:34:00.609Z,47.30
2023-04-12T20:39:05.690Z,47.51
2023-04-12T20:44:08.790Z,47.74
2023-04-12T20:49:12.470Z,47.70
2023-04-12T20:54:14.781Z,47.90
2023-04-12T20:59:23.000Z,47.66
2023-04-12T21:04:28.019Z,47.66
2023-04-12T21:09:30.550Z,48.08
2023-04-12T21:14:35.225Z,46.95
2023-04-12T21:19:39.201Z,47.13
2023-04-12T21:24:41.565Z,47.14
2023-04-12T21:29:44.865Z,46.56
2023-04-12T21:34:47.732Z,46.46
2023-04-12T21:39:52.721Z,46.04
2023-04-12T21:44:56.304Z,45.85
2023-04-12T21:49:59.941Z,45.67
2023-04-12T21:55:05.167Z,45.85
2023-04-12T22:00:10.224Z,45.79
2023-04-12T22:05:16.351Z,45.18
2023-04-12T22:10:20.608Z,45.37
2023-04-12T22:15:23.514Z,45.42
2023-04-12T22:20:28.565Z,45.77
2023-04-12T22:25:32.101Z,45.60
2023-04-12T22:30:35.986Z,45.89
2023-04-12T22:35:38.851Z,45.69
2023-04-12T22:40:42.477Z,45.53
2023-04-12T22:45:47.627Z,45.77
2023-04-12T22:50:50.486Z,45.96
2023-04-12T22:55:55.632Z,45.86
2023-04-12T23:00:59.096Z,46.06
2023-04-12T23:06:02.362Z,46.28
2023-04-12T23:11:05.110Z,45.97
2023-04-12T23:16:08.512Z,46.29
2023-04-12T23:21:12.158Z,46.70
2023-04-12T23:26:14.597Z,46.92
2023-04-12T23:31:17.260Z,47.29
2023-04-12T23:36:22.695Z,47.48
2023-04-12T23:41:25.439Z,47.46
2023-04-12T23:46:28.573Z,47.25
2023-04-12T23:51:31.008Z,47.15
2023-04-12T23:56:34.000Z,47.09
